Time;durP1;ratioP1;P1;durP2;ratioP2;P2;SDS_P1;SDS_P2;PMS_P1;PMS_P2;Temp;Humidity;BMP_temperature;BMP_pressure;BME280_temperature;BME280_humidity;BME280_pressure;Samples;Min_cycle;Max_cycle;Signal;HPM_P1;HPM_P2
2022/07/09 00:01:08;;;;;;;3.40;2.00;;;;;;;;;;5093089;28;20648;-87
2022/07/09 00:03:37;;;;;;;2.10;1.90;;;;;;;;;;5092933;28;20196;-87
2022/07/09 00:06:04;;;;;;;1.90;1.80;;;;;;;;;;5093242;28;20558;-87
2022/07/09 00:08:32;;;;;;;4.97;2.20;;;;;;;;;;5093129;28;20583;-86
2022/07/09 00:10:59;;;;;;;3.37;2.20;;;;;;;;;;5093008;28;20203;-87
2022/07/09 00:13:26;;;;;;;2.60;2.00;;;;;;;;;;5092766;28;20221;-87
2022/07/09 00:15:53;;;;;;;4.50;2.27;;;;;;;;;;5093175;28;20200;-87
2022/07/09 00:18:21;;;;;;;3.17;2.13;;;;;;;;;;5092997;28;20249;-87
2022/07/09 00:20:49;;;;;;;2.20;2.00;;;;;;;;;;5092862;28;20192;-87
2022/07/09 00:23:16;;;;;;;2.77;2.57;;;;;;;;;;5092695;28;20197;-87
2022/07/09 00:25:43;;;;;;;2.40;2.03;;;;;;;;;;5093106;28;20196;-87
2022/07/09 00:28:10;;;;;;;1.90;1.80;;;;;;;;;;5093175;28;20680;-87
2022/07/09 00:30:37;;;;;;;2.13;2.03;;;;;;;;;;5092954;28;20196;-87
2022/07/09 00:33:05;;;;;;;2.00;1.73;;;;;;;;;;5094004;28;20223;-87
2022/07/09 00:35:32;;;;;;;2.07;1.97;;;;;;;;;;5096552;28;20192;-87
2022/07/09 00:38:00;;;;;;;2.00;1.80;;;;;;;;;;5097044;28;20204;-87
2022/07/09 00:40:27;;;;;;;2.10;1.90;;;;;;;;;;5096690;28;20700;-87
2022/07/09 00:42:54;;;;;;;4.60;2.47;;;;;;;;;;5096571;28;20192;-85
2022/07/09 00:45:21;;;;;;;3.83;2.07;;;;;;;;;;5096891;28;20607;-87
2022/07/09 00:47:49;;;;;;;2.83;1.93;;;;;;;;;;5096630;28;20253;-87
2022/07/09 00:50:16;;;;;;;1.90;1.80;;;;;;;;;;5096589;28;20230;-87
2022/07/09 00:52:44;;;;;;;2.00;1.80;;;;;;;;;;5096472;28;20227;-87
2022/07/09 00:55:13;;;;;;;3.10;1.80;;;;;;;;;;5096442;28;20200;-87
2022/07/09 00:57:40;;;;;;;2.13;1.97;;;;;;;;;;5096774;28;20281;-87
2022/07/09 01:00:08;;;;;;;2.97;1.80;;;;;;;;;;5096443;28;20238;-87
2022/07/09 01:02:35;;;;;;;2.10;1.70;;;;;;;;;;5096231;28;20304;-87
2022/07/09 01:05:02;;;;;;;2.07;1.90;;;;;;;;;;5096239;28;20205;-87
2022/07/09 01:07:30;;;;;;;2.20;2.00;;;;;;;;;;5096286;28;20200;-86
2022/07/09 01:09:57;;;;;;;3.70;2.10;;;;;;;;;;5095977;28;20192;-87
2022/07/09 01:12:25;;;;;;;4.93;2.57;;;;;;;;;;5096374;28;20216;-87
2022/07/09 01:14:52;;;;;;;2.27;1.63;;;;;;;;;;5096054;28;20575;-86
2022/07/09 01:17:20;;;;;;;3.23;2.07;;;;;;;;;;5096040;28;20185;-88
2022/07/09 01:19:47;;;;;;;3.37;2.37;;;;;;;;;;5096385;28;20660;-88
2022/07/09 01:22:15;;;;;;;2.10;2.00;;;;;;;;;;5096136;28;20192;-87
2022/07/09 01:24:42;;;;;;;2.17;2.07;;;;;;;;;;5096294;28;20202;-87
2022/07/09 01:27:10;;;;;;;2.40;2.20;;;;;;;;;;5095853;28;20188;-87
2022/07/09 01:29:37;;;;;;;2.20;2.00;;;;;;;;;;5096127;28;20192;-87
2022/07/09 01:32:04;;;;;;;2.50;2.30;;;;;;;;;;5095958;28;20224;-87
2022/07/09 01:34:32;;;;;;;4.20;2.10;;;;;;;;;;5095910;28;20196;-88
2022/07/09 01:36:59;;;;;;;2.03;1.93;;;;;;;;;;5095434;28;20200;-87
2022/07/09 01:39:27;;;;;;;2.90;1.83;;;;;;;;;;5095884;28;20200;-87
2022/07/09 01:41:54;;;;;;;3.17;1.77;;;;;;;;;;5095794;28;20218;-87
2022/07/09 01:44:21;;;;;;;2.10;1.90;;;;;;;;;;5095313;28;20208;-87
2022/07/09 01:46:48;;;;;;;2.73;2.00;;;;;;;;;;5095580;28;20738;-88
2022/07/09 01:49:16;;;;;;;2.07;1.97;;;;;;;;;;5095351;28;20199;-88
2022/07/09 01:51:43;;;;;;;2.40;2.20;;;;;;;;;;5095439;28;20196;-87
2022/07/09 01:54:10;;;;;;;2.37;2.23;;;;;;;;;;5095709;28;20196;-87
2022/07/09 01:56:39;;;;;;;3.10;1.90;;;;;;;;;;5095233;28;20196;-87
2022/07/09 01:59:06;;;;;;;2.67;2.47;;;;;;;;;;5094840;28;20203;-86
2022/07/09 02:01:33;;;;;;;2.30;2.10;;;;;;;;;;5095866;28;20188;-87
2022/07/09 02:04:00;;;;;;;2.30;2.10;;;;;;;;;;5095127;28;20188;-87
2022/07/09 02:06:27;;;;;;;5.13;2.67;;;;;;;;;;5095187;28;20724;-88
2022/07/09 02:08:54;;;;;;;2.87;2.20;;;;;;;;;;5094916;28;20200;-87
2022/07/09 02:11:21;;;;;;;3.27;2.27;;;;;;;;;;5095351;28;20554;-86
2022/07/09 02:13:50;;;;;;;3.10;2.50;;;;;;;;;;5094773;28;20577;-87
2022/07/09 02:16:17;;;;;;;2.43;2.30;;;;;;;;;;5094932;28;20192;-87
2022/07/09 02:18:44;;;;;;;2.77;2.13;;;;;;;;;;5094932;28;20189;-87
2022/07/09 02:21:11;;;;;;;3.13;1.80;;;;;;;;;;5095159;28;20192;-87
2022/07/09 02:23:38;;;;;;;2.20;2.10;;;;;;;;;;5094947;28;20189;-87
2022/07/09 02:26:05;;;;;;;2.13;2.00;;;;;;;;;;5094943;28;20696;-87
2022/07/09 02:28:32;;;;;;;6.30;3.00;;;;;;;;;;5094956;28;20202;-87
2022/07/09 02:31:01;;;;;;;2.20;2.00;;;;;;;;;;5094954;28;20200;-87
2022/07/09 02:33:30;;;;;;;3.00;2.10;;;;;;;;;;5094353;28;20281;-87
2022/07/09 02:35:57;;;;;;;3.03;2.33;;;;;;;;;;5094635;28;20219;-87
2022/07/09 02:38:24;;;;;;;2.37;2.27;;;;;;;;;;5094542;28;20196;-87
2022/07/09 02:40:51;;;;;;;4.67;3.13;;;;;;;;;;5094829;28;20196;-87
2022/07/09 02:43:18;;;;;;;3.70;1.97;;;;;;;;;;5094443;28;20607;-87
2022/07/09 02:45:45;;;;;;;2.77;2.57;;;;;;;;;;5094670;28;20204;-87
2022/07/09 02:48:14;;;;;;;3.17;2.13;;;;;;;;;;5094746;28;20203;-88
2022/07/09 02:50:41;;;;;;;4.07;2.40;;;;;;;;;;5094457;28;20261;-88
2022/07/09 02:53:08;;;;;;;4.40;1.93;;;;;;;;;;5094767;28;20220;-87
2022/07/09 02:55:35;;;;;;;4.30;2.30;;;;;;;;;;5094443;28;20564;-87
2022/07/09 02:58:02;;;;;;;2.40;2.20;;;;;;;;;;5094506;28;20196;-87
2022/07/09 03:00:29;;;;;;;4.80;2.47;;;;;;;;;;5093769;28;20231;-88
2022/07/09 03:02:56;;;;;;;3.17;2.30;;;;;;;;;;5093978;28;20218;-87
2022/07/09 03:05:25;;;;;;;2.50;2.30;;;;;;;;;;5094166;28;20219;-87
2022/07/09 03:07:52;;;;;;;3.47;2.50;;;;;;;;;;5094039;28;20191;-88
2022/07/09 03:10:19;;;;;;;2.60;2.17;;;;;;;;;;5093940;28;20196;-87
2022/07/09 03:12:46;;;;;;;4.30;2.40;;;;;;;;;;5093814;28;20224;-86
2022/07/09 03:15:16;;;;;;;2.50;2.20;;;;;;;;;;5094110;28;20250;-88
2022/07/09 03:17:43;;;;;;;2.57;2.40;;;;;;;;;;5093970;28;20192;-87
2022/07/09 03:20:11;;;;;;;2.83;2.40;;;;;;;;;;5095148;28;20579;-88
2022/07/09 03:22:40;;;;;;;2.90;2.50;;;;;;;;;;5096034;28;20609;-88
2022/07/09 03:25:09;;;;;;;2.73;2.40;;;;;;;;;;5094793;28;20265;-87
2022/07/09 03:27:36;;;;;;;2.60;2.40;;;;;;;;;;5095025;28;20200;-87
2022/07/09 03:30:04;;;;;;;4.23;2.43;;;;;;;;;;5094680;28;20192;-88
2022/07/09 03:32:31;;;;;;;5.70;2.50;;;;;;;;;;5094409;28;20228;-87
2022/07/09 03:34:58;;;;;;;2.87;2.60;;;;;;;;;;5094421;28;20246;-86
2022/07/09 03:37:26;;;;;;;3.63;2.53;;;;;;;;;;5093684;28;20200;-88
2022/07/09 03:39:54;;;;;;;3.40;2.33;;;;;;;;;;5093265;28;20730;-87
2022/07/09 03:42:21;;;;;;;2.83;2.60;;;;;;;;;;5093336;28;20196;-86
2022/07/09 03:44:48;;;;;;;3.93;2.60;;;;;;;;;;5093221;28;20336;-86
2022/07/09 03:47:15;;;;;;;2.70;2.50;;;;;;;;;;5093350;28;20188;-87
2022/07/09 03:49:43;;;;;;;2.97;2.63;;;;;;;;;;5093143;28;20223;-87
2022/07/09 03:52:10;;;;;;;4.20;2.60;;;;;;;;;;5093176;28;20196;-87
2022/07/09 03:54:37;;;;;;;2.97;2.60;;;;;;;;;;5093112;28;20231;-88
2022/07/09 03:57:06;;;;;;;3.03;2.57;;;;;;;;;;5093376;28;20722;-85
2022/07/09 03:59:33;;;;;;;3.43;2.20;;;;;;;;;;5092667;28;20236;-87
2022/07/09 04:02:00;;;;;;;2.60;2.40;;;;;;;;;;5093371;28;20196;-88
2022/07/09 04:04:27;;;;;;;5.53;2.83;;;;;;;;;;5092855;28;20188;-87
2022/07/09 04:06:55;;;;;;;2.80;2.60;;;;;;;;;;5092831;28;20234;-88
2022/07/09 04:09:23;;;;;;;5.77;3.27;;;;;;;;;;5092575;28;20645;-86
2022/07/09 04:11:50;;;;;;;3.97;2.60;;;;;;;;;;5093103;28;20199;-86
2022/07/09 04:14:19;;;;;;;2.50;2.30;;;;;;;;;;5092837;28;20223;-85
2022/07/09 04:16:46;;;;;;;5.10;2.70;;;;;;;;;;5092571;28;20295;-86
2022/07/09 04:19:14;;;;;;;2.83;2.50;;;;;;;;;;5093134;28;20205;-87
2022/07/09 04:21:41;;;;;;;2.90;2.70;;;;;;;;;;5092973;28;20560;-86
2022/07/09 04:24:08;;;;;;;3.40;2.50;;;;;;;;;;5092794;28;20189;-88
2022/07/09 04:26:35;;;;;;;2.80;2.60;;;;;;;;;;5092840;28;20192;-88
2022/07/09 04:29:02;;;;;;;8.13;2.80;;;;;;;;;;5093004;28;20204;-87
2022/07/09 04:31:31;;;;;;;3.70;2.63;;;;;;;;;;5092816;28;20257;-86
2022/07/09 04:33:58;;;;;;;2.77;2.57;;;;;;;;;;5092424;28;20223;-85
2022/07/09 04:36:25;;;;;;;3.30;3.00;;;;;;;;;;5092556;28;20203;-87
2022/07/09 04:38:52;;;;;;;3.00;2.80;;;;;;;;;;5092859;28;20630;-86
2022/07/09 04:41:19;;;;;;;4.90;2.97;;;;;;;;;;5092546;28;20253;-86
2022/07/09 04:43:46;;;;;;;9.17;3.37;;;;;;;;;;5092466;28;20253;-86
2022/07/09 04:46:13;;;;;;;3.07;2.80;;;;;;;;;;5092738;28;20196;-86
2022/07/09 04:48:42;;;;;;;3.13;2.93;;;;;;;;;;5092755;28;20201;-87
2022/07/09 04:51:09;;;;;;;5.70;2.90;;;;;;;;;;5093032;28;20584;-87
2022/07/09 04:53:36;;;;;;;3.10;2.90;;;;;;;;;;5092824;28;20696;-90
2022/07/09 04:56:03;;;;;;;3.13;2.83;;;;;;;;;;5092849;28;20230;-87
2022/07/09 04:58:31;;;;;;;3.73;2.90;;;;;;;;;;5092674;28;20249;-87
2022/07/09 05:00:58;;;;;;;3.07;2.80;;;;;;;;;;5092436;28;20235;-88
2022/07/09 05:03:25;;;;;;;3.57;3.10;;;;;;;;;;5092974;28;20246;-87
2022/07/09 05:05:54;;;;;;;4.00;3.17;;;;;;;;;;5092455;28;20665;-88
2022/07/09 05:08:21;;;;;;;4.03;2.90;;;;;;;;;;5092404;28;20200;-89
2022/07/09 05:10:48;;;;;;;3.50;3.20;;;;;;;;;;5092367;28;20196;-88
2022/07/09 05:13:15;;;;;;;4.53;2.77;;;;;;;;;;5092684;28;20220;-86
2022/07/09 05:15:42;;;;;;;3.73;3.17;;;;;;;;;;5092650;28;20197;-89
2022/07/09 05:18:09;;;;;;;3.73;3.43;;;;;;;;;;5092614;28;20200;-88
2022/07/09 05:20:36;;;;;;;3.43;3.17;;;;;;;;;;5094408;28;20210;-88
2022/07/09 05:23:05;;;;;;;4.30;3.47;;;;;;;;;;5096178;28;20193;-88
2022/07/09 05:25:32;;;;;;;4.40;3.37;;;;;;;;;;5095836;28;20204;-89
2022/07/09 05:27:59;;;;;;;3.27;2.93;;;;;;;;;;5096078;28;20200;-87
2022/07/09 05:30:26;;;;;;;3.77;3.20;;;;;;;;;;5095831;28;20254;-88
2022/07/09 05:32:53;;;;;;;4.00;3.60;;;;;;;;;;5095673;28;20184;-89
2022/07/09 05:35:20;;;;;;;4.43;3.63;;;;;;;;;;5095618;28;20195;-89
2022/07/09 05:37:48;;;;;;;4.37;3.13;;;;;;;;;;5096085;28;20646;-87
2022/07/09 05:40:16;;;;;;;3.83;3.40;;;;;;;;;;5095687;28;20203;-88
2022/07/09 05:42:43;;;;;;;3.20;3.00;;;;;;;;;;5095639;28;20665;-87
2022/07/09 05:45:11;;;;;;;3.03;2.83;;;;;;;;;;5095619;28;20196;-90
2022/07/09 05:47:38;;;;;;;4.63;3.67;;;;;;;;;;5095844;28;20206;-87
2022/07/09 05:50:06;;;;;;;5.70;4.17;;;;;;;;;;5095722;28;20189;-88
2022/07/09 05:52:33;;;;;;;5.57;3.33;;;;;;;;;;5095864;28;20709;-88
2022/07/09 05:55:03;;;;;;;3.80;3.50;;;;;;;;;;5095563;28;20224;-87
2022/07/09 05:57:31;;;;;;;4.20;3.80;;;;;;;;;;5095666;28;20660;-87
2022/07/09 05:59:59;;;;;;;5.23;3.83;;;;;;;;;;5095199;28;20236;-88
2022/07/09 06:02:26;;;;;;;3.47;3.27;;;;;;;;;;5095535;28;20669;-87
2022/07/09 06:04:53;;;;;;;3.50;3.30;;;;;;;;;;5095497;28;20557;-87
2022/07/09 06:07:20;;;;;;;3.23;3.00;;;;;;;;;;5095557;28;20572;-87
2022/07/09 06:09:47;;;;;;;7.30;3.20;;;;;;;;;;5095139;28;20188;-87
2022/07/09 06:12:14;;;;;;;6.53;3.40;;;;;;;;;;5095314;28;20618;-88
2022/07/09 06:14:43;;;;;;;3.20;2.90;;;;;;;;;;5094786;28;20277;-87
2022/07/09 06:17:10;;;;;;;3.50;3.20;;;;;;;;;;5094935;28;20192;-88
2022/07/09 06:19:38;;;;;;;3.40;3.20;;;;;;;;;;5095194;28;20204;-87
2022/07/09 06:22:05;;;;;;;3.37;3.07;;;;;;;;;;5095389;28;20188;-88
2022/07/09 06:24:33;;;;;;;3.70;2.97;;;;;;;;;;5095096;28;20188;-88
2022/07/09 06:27:00;;;;;;;2.73;2.53;;;;;;;;;;5095047;28;20555;-89
2022/07/09 06:29:27;;;;;;;4.13;2.97;;;;;;;;;;5095202;28;20200;-89
2022/07/09 06:31:59;;;;;;;3.17;2.97;;;;;;;;;;5094640;28;20683;-87
2022/07/09 06:34:27;;;;;;;3.57;3.27;;;;;;;;;;5094508;28;20212;-89
2022/07/09 06:36:54;;;;;;;4.07;3.73;;;;;;;;;;5094942;28;20206;-87
2022/07/09 06:42:20;;;;;;;3.37;3.17;;;;;;;;;;5052585;28;20178;-89
2022/07/09 06:44:47;;;;;;;5.63;3.43;;;;;;;;;;5052202;28;20247;-86
2022/07/09 06:47:15;;;;;;;3.60;3.40;;;;;;;;;;5052585;28;20208;-88
2022/07/09 06:49:42;;;;;;;3.60;3.30;;;;;;;;;;5052333;28;20198;-88
2022/07/09 06:52:09;;;;;;;5.53;3.83;;;;;;;;;;5052478;28;20206;-87
2022/07/09 06:54:37;;;;;;;3.30;2.93;;;;;;;;;;5052195;28;20222;-88
2022/07/09 06:57:06;;;;;;;3.27;3.03;;;;;;;;;;5052113;28;20709;-88
2022/07/09 06:59:33;;;;;;;4.17;3.00;;;;;;;;;;5051893;28;20678;-87
2022/07/09 07:02:00;;;;;;;3.93;3.37;;;;;;;;;;5052117;28;20248;-86
2022/07/09 07:04:29;;;;;;;4.93;4.03;;;;;;;;;;5051744;28;20202;-87
2022/07/09 07:06:56;;;;;;;3.13;2.93;;;;;;;;;;5051668;28;20248;-88
2022/07/09 07:09:23;;;;;;;3.83;3.47;;;;;;;;;;5051651;28;20201;-87
2022/07/09 07:11:50;;;;;;;4.20;3.80;;;;;;;;;;5051636;28;20713;-89
2022/07/09 07:14:17;;;;;;;3.57;3.27;;;;;;;;;;5090920;28;20318;-87
2022/07/09 07:16:45;;;;;;;4.17;3.37;;;;;;;;;;5093971;28;20279;-88
2022/07/09 07:19:12;;;;;;;3.13;2.93;;;;;;;;;;5093670;28;20184;-88
2022/07/09 07:21:41;;;;;;;12.87;3.93;;;;;;;;;;5093987;28;20200;-86
2022/07/09 07:24:08;;;;;;;4.67;2.93;;;;;;;;;;5093912;28;20199;-87
2022/07/09 07:26:36;;;;;;;4.07;3.30;;;;;;;;;;5093515;28;20644;-87
2022/07/09 07:29:03;;;;;;;4.00;3.17;;;;;;;;;;5093730;28;20250;-88
2022/07/09 07:31:30;;;;;;;6.60;3.13;;;;;;;;;;5093448;28;20202;-87
2022/07/09 07:33:59;;;;;;;4.80;3.10;;;;;;;;;;5093386;28;20720;-88
2022/07/09 07:36:26;;;;;;;2.90;2.70;;;;;;;;;;5093863;28;20265;-87
2022/07/09 07:38:55;;;;;;;2.80;2.47;;;;;;;;;;5093580;28;20203;-87
2022/07/09 07:41:22;;;;;;;3.23;2.93;;;;;;;;;;5093507;28;20200;-87
2022/07/09 07:43:49;;;;;;;3.17;2.97;;;;;;;;;;5092898;28;20665;-88
2022/07/09 07:46:16;;;;;;;3.43;3.13;;;;;;;;;;5093457;28;20275;-87
2022/07/09 07:48:43;;;;;;;4.17;3.20;;;;;;;;;;5093512;28;20223;-86
2022/07/09 07:51:11;;;;;;;3.03;2.83;;;;;;;;;;5093431;28;20203;-87
2022/07/09 07:53:38;;;;;;;4.27;3.03;;;;;;;;;;5093422;28;20204;-88
2022/07/09 07:56:08;;;;;;;5.30;2.97;;;;;;;;;;5093235;28;20610;-87
2022/07/09 07:58:36;;;;;;;6.77;3.60;;;;;;;;;;5093612;28;20928;-87
2022/07/09 08:01:03;;;;;;;2.93;2.73;;;;;;;;;;5092950;28;20227;-88
2022/07/09 08:03:32;;;;;;;3.43;3.13;;;;;;;;;;5093207;28;20650;-87
2022/07/09 08:05:59;;;;;;;3.10;2.80;;;;;;;;;;5093039;28;20672;-88
2022/07/09 08:08:26;;;;;;;3.73;2.73;;;;;;;;;;5093272;28;20197;-87
2022/07/09 08:10:53;;;;;;;2.93;2.73;;;;;;;;;;5092756;28;20196;-87
2022/07/09 08:13:22;;;;;;;2.93;2.60;;;;;;;;;;5093182;28;20203;-87
2022/07/09 08:15:49;;;;;;;4.13;3.10;;;;;;;;;;5092853;28;20228;-88
2022/07/09 08:18:16;;;;;;;2.90;2.50;;;;;;;;;;5092936;28;20192;-87
2022/07/09 08:20:44;;;;;;;5.07;3.10;;;;;;;;;;5093337;28;20196;-87
2022/07/09 08:23:11;;;;;;;9.47;3.50;;;;;;;;;;5092969;28;20192;-87
2022/07/09 08:25:38;;;;;;;2.80;2.60;;;;;;;;;;5092841;28;20192;-86
2022/07/09 08:28:06;;;;;;;8.17;2.73;;;;;;;;;;5093216;28;20618;-88
2022/07/09 08:30:35;;;;;;;3.63;3.07;;;;;;;;;;5092968;28;20661;-87
2022/07/09 08:33:02;;;;;;;2.87;2.63;;;;;;;;;;5093104;28;20203;-87
2022/07/09 08:35:29;;;;;;;3.80;3.13;;;;;;;;;;5092877;28;20603;-87
2022/07/09 08:37:56;;;;;;;6.43;3.00;;;;;;;;;;5092950;28;20621;-88
2022/07/09 08:40:26;;;;;;;3.47;3.17;;;;;;;;;;5092704;28;20196;-87
2022/07/09 08:42:54;;;;;;;2.97;2.77;;;;;;;;;;5092618;28;20201;-87
2022/07/09 08:45:22;;;;;;;2.80;2.60;;;;;;;;;;5092777;28;20196;-89
2022/07/09 08:47:50;;;;;;;4.97;3.17;;;;;;;;;;5092789;28;20230;-88
2022/07/09 08:50:18;;;;;;;3.40;3.10;;;;;;;;;;5093107;28;20200;-87
2022/07/09 08:52:45;;;;;;;3.63;3.27;;;;;;;;;;5093031;28;20284;-87
2022/07/09 08:55:13;;;;;;;5.30;3.33;;;;;;;;;;5095416;28;20227;-88
2022/07/09 08:57:40;;;;;;;3.40;3.10;;;;;;;;;;5096769;28;20200;-87
2022/07/09 09:00:08;;;;;;;3.23;2.77;;;;;;;;;;5096160;28;20231;-88
2022/07/09 09:02:36;;;;;;;3.37;3.07;;;;;;;;;;5096348;28;20192;-88
2022/07/09 09:05:13;;;;;;;4.53;2.73;;;;;;;;;;5096329;28;20291;-87
2022/07/09 09:07:40;;;;;;;3.17;2.97;;;;;;;;;;5096389;28;20188;-87
2022/07/09 09:10:07;;;;;;;8.13;3.67;;;;;;;;;;5096333;28;20192;-87
2022/07/09 09:12:35;;;;;;;5.37;3.50;;;;;;;;;;5096423;28;20199;-89
2022/07/09 09:15:06;;;;;;;3.90;3.20;;;;;;;;;;5096131;28;20220;-89
2022/07/09 09:17:34;;;;;;;3.53;3.23;;;;;;;;;;5096567;28;20208;-89
2022/07/09 09:20:12;;;;;;;3.63;3.33;;;;;;;;;;5096293;28;20672;-88
2022/07/09 09:22:46;;;;;;;3.80;3.47;;;;;;;;;;5096426;28;20180;-87
2022/07/09 09:25:17;;;;;;;3.20;2.90;;;;;;;;;;5095903;28;20271;-88
2022/07/09 09:27:51;;;;;;;3.57;3.30;;;;;;;;;;5096006;28;20185;-88
2022/07/09 09:30:18;;;;;;;3.77;3.03;;;;;;;;;;5096096;28;20184;-88
2022/07/09 09:32:45;;;;;;;7.27;3.07;;;;;;;;;;5095864;28;20191;-88
2022/07/09 09:35:14;;;;;;;3.07;2.67;;;;;;;;;;5095747;28;20216;-89
2022/07/09 09:37:44;;;;;;;3.30;3.03;;;;;;;;;;5095755;28;20203;-87
2022/07/09 09:40:12;;;;;;;2.97;2.77;;;;;;;;;;5095847;28;20623;-88
2022/07/09 09:42:41;;;;;;;5.00;2.87;;;;;;;;;;5095645;28;20196;-88
2022/07/09 09:45:10;;;;;;;3.47;2.73;;;;;;;;;;5095862;28;20197;-89
2022/07/09 09:47:37;;;;;;;3.17;2.80;;;;;;;;;;5096046;28;20660;-90
2022/07/09 09:50:05;;;;;;;3.53;3.07;;;;;;;;;;5095981;28;20197;-90
2022/07/09 09:52:36;;;;;;;3.60;3.30;;;;;;;;;;5095647;28;20192;-89
2022/07/09 09:55:04;;;;;;;3.07;2.50;;;;;;;;;;5095342;28;20208;-88
2022/07/09 09:57:32;;;;;;;3.10;2.80;;;;;;;;;;5095440;28;20189;-87
2022/07/09 09:59:59;;;;;;;3.20;2.90;;;;;;;;;;5095293;28;20300;-89
2022/07/09 10:02:27;;;;;;;2.73;2.53;;;;;;;;;;5095319;28;20196;-87
2022/07/09 10:04:54;;;;;;;6.10;2.83;;;;;;;;;;5095269;28;20235;-88
2022/07/09 10:07:21;;;;;;;2.90;2.70;;;;;;;;;;5094438;28;20203;-88
2022/07/09 10:09:56;;;;;;;3.17;2.97;;;;;;;;;;5095130;28;20249;-87
2022/07/09 10:12:28;;;;;;;4.80;2.77;;;;;;;;;;5095345;28;20615;-88
2022/07/09 10:14:56;;;;;;;4.73;2.90;;;;;;;;;;5094923;28;20216;-89
2022/07/09 10:17:24;;;;;;;2.93;2.60;;;;;;;;;;5095036;28;20250;-89
2022/07/09 10:19:53;;;;;;;2.67;2.47;;;;;;;;;;5095473;28;20196;-89
2022/07/09 10:22:20;;;;;;;3.83;2.80;;;;;;;;;;5095121;28;20768;-89
2022/07/09 10:24:51;;;;;;;3.20;2.27;;;;;;;;;;5095091;28;20193;-88
2022/07/09 10:27:20;;;;;;;3.27;2.37;;;;;;;;;;5094856;28;20275;-87
2022/07/09 10:29:58;;;;;;;5.07;2.87;;;;;;;;;;5094894;28;20196;-87
2022/07/09 10:32:29;;;;;;;4.47;2.53;;;;;;;;;;5094725;28;20184;-88
2022/07/09 10:35:00;;;;;;;2.67;2.47;;;;;;;;;;5094889;28;20204;-90
2022/07/09 10:37:37;;;;;;;2.83;2.63;;;;;;;;;;5094774;28;20196;-88
2022/07/09 10:40:12;;;;;;;2.53;2.33;;;;;;;;;;5094647;28;20199;-89
2022/07/09 10:42:41;;;;;;;2.90;2.00;;;;;;;;;;5094443;28;20192;-88
2022/07/09 10:45:22;;;;;;;2.20;2.10;;;;;;;;;;5094602;28;20568;-89
2022/07/09 10:47:53;;;;;;;2.77;2.57;;;;;;;;;;5094388;28;20278;-88
2022/07/09 10:50:20;;;;;;;5.07;2.30;;;;;;;;;;5094542;28;20189;-88
2022/07/09 10:52:47;;;;;;;3.20;2.67;;;;;;;;;;5094776;28;20245;-88
2022/07/09 10:55:17;;;;;;;6.30;2.40;;;;;;;;;;5094043;28;20224;-88
2022/07/09 10:57:46;;;;;;;5.93;2.47;;;;;;;;;;5095393;28;20605;-87
2022/07/09 11:00:17;;;;;;;4.53;2.27;;;;;;;;;;5093964;28;20273;-88
2022/07/09 11:02:58;;;;;;;2.37;2.20;;;;;;;;;;5094226;28;20180;-88
2022/07/09 11:05:26;;;;;;;2.37;2.17;;;;;;;;;;5094382;28;20234;-88
2022/07/09 11:08:01;;;;;;;3.20;2.63;;;;;;;;;;5094072;28;20657;-87
2022/07/09 11:10:30;;;;;;;2.30;2.10;;;;;;;;;;5094106;28;20196;-87
2022/07/09 11:13:00;;;;;;;4.67;2.77;;;;;;;;;;5094139;28;20630;-87
2022/07/09 11:15:29;;;;;;;3.13;2.83;;;;;;;;;;5093806;28;20208;-88
2022/07/09 11:18:00;;;;;;;3.37;2.80;;;;;;;;;;5092806;28;20192;-87
2022/07/09 11:20:27;;;;;;;2.57;2.37;;;;;;;;;;5093968;28;20200;-89
2022/07/09 11:22:56;;;;;;;3.47;2.47;;;;;;;;;;5094184;28;20238;-87
2022/07/09 11:25:25;;;;;;;2.20;2.10;;;;;;;;;;5093802;28;20200;-88
2022/07/09 11:27:52;;;;;;;2.47;2.07;;;;;;;;;;5093632;28;20672;-87
2022/07/09 11:30:21;;;;;;;3.03;2.23;;;;;;;;;;5093588;28;20204;-87
2022/07/09 11:32:48;;;;;;;2.47;2.27;;;;;;;;;;5093460;28;20200;-89
2022/07/09 11:35:25;;;;;;;2.37;2.17;;;;;;;;;;5093366;28;20705;-87
2022/07/09 11:37:52;;;;;;;3.00;2.47;;;;;;;;;;5094449;28;20251;-86
2022/07/09 11:40:20;;;;;;;6.30;2.40;;;;;;;;;;5093117;28;20253;-86
2022/07/09 11:42:47;;;;;;;2.70;2.20;;;;;;;;;;5093723;28;20219;-88
2022/07/09 11:45:14;;;;;;;3.80;1.97;;;;;;;;;;5093061;28;20683;-88
2022/07/09 11:47:45;;;;;;;2.60;2.43;;;;;;;;;;5093683;28;20200;-86
2022/07/09 11:50:14;;;;;;;2.07;1.90;;;;;;;;;;5093364;28;20660;-87
2022/07/09 11:52:45;;;;;;;2.10;2.00;;;;;;;;;;5093386;28;20199;-87
2022/07/09 11:55:15;;;;;;;2.20;2.00;;;;;;;;;;5093266;28;20784;-88
2022/07/09 11:57:52;;;;;;;4.07;1.93;;;;;;;;;;5093003;28;20196;-88
2022/07/09 12:00:22;;;;;;;4.37;1.80;;;;;;;;;;5093049;28;20288;-88
2022/07/09 12:02:51;;;;;;;2.80;2.23;;;;;;;;;;5093245;28;20184;-88
2022/07/09 12:05:26;;;;;;;1.87;1.77;;;;;;;;;;5092853;28;20224;-87
2022/07/09 12:07:54;;;;;;;2.77;2.27;;;;;;;;;;5093063;28;20558;-87
2022/07/09 12:10:27;;;;;;;2.00;1.90;;;;;;;;;;5092885;28;20283;-88
2022/07/09 12:12:54;;;;;;;2.20;2.00;;;;;;;;;;5093113;28;20545;-87
2022/07/09 12:15:22;;;;;;;2.00;1.87;;;;;;;;;;5092643;28;20269;-89
2022/07/09 12:17:55;;;;;;;2.73;2.13;;;;;;;;;;5093262;28;20204;-87
2022/07/09 12:20:23;;;;;;;3.57;2.30;;;;;;;;;;5093131;28;20208;-87
2022/07/09 12:22:50;;;;;;;3.87;1.97;;;;;;;;;;5093154;28;20192;-88
2022/07/09 12:25:18;;;;;;;2.00;1.90;;;;;;;;;;5092965;28;20193;-87
2022/07/09 12:27:45;;;;;;;3.37;2.10;;;;;;;;;;5092743;28;20188;-87
2022/07/09 12:30:13;;;;;;;4.63;1.97;;;;;;;;;;5095819;28;20196;-88
2022/07/09 12:32:41;;;;;;;4.07;2.20;;;;;;;;;;5097192;28;20370;-87
2022/07/09 12:35:10;;;;;;;2.43;2.23;;;;;;;;;;5096904;28;20204;-88
2022/07/09 12:37:38;;;;;;;1.83;1.70;;;;;;;;;;5097435;28;20249;-88
2022/07/09 12:40:07;;;;;;;2.37;2.07;;;;;;;;;;5096887;28;20191;-88
2022/07/09 12:42:35;;;;;;;1.97;1.83;;;;;;;;;;5096803;28;20200;-88
2022/07/09 12:45:02;;;;;;;4.23;1.93;;;;;;;;;;5096871;28;20196;-87
2022/07/09 12:47:29;;;;;;;2.17;1.70;;;;;;;;;;5096865;28;20188;-88
2022/07/09 12:49:56;;;;;;;2.00;1.90;;;;;;;;;;5096780;28;20196;-87
2022/07/09 12:52:26;;;;;;;3.87;1.60;;;;;;;;;;5097011;28;20283;-88
2022/07/09 12:54:53;;;;;;;2.80;2.20;;;;;;;;;;5097093;28;20597;-88
2022/07/09 12:57:20;;;;;;;2.27;1.93;;;;;;;;;;5096436;28;20393;-87
2022/07/09 12:59:47;;;;;;;2.50;2.03;;;;;;;;;;5096569;28;20228;-88
2022/07/09 13:02:14;;;;;;;3.40;1.50;;;;;;;;;;5096664;28;20583;-88
2022/07/09 13:04:41;;;;;;;3.60;2.40;;;;;;;;;;5096417;28;20193;-88
2022/07/09 13:07:08;;;;;;;1.80;1.70;;;;;;;;;;5096450;28;20210;-88
2022/07/09 13:09:37;;;;;;;2.00;1.90;;;;;;;;;;5096384;28;20222;-86
2022/07/09 13:12:05;;;;;;;2.67;2.00;;;;;;;;;;5096310;28;20199;-88
2022/07/09 13:14:32;;;;;;;2.40;1.90;;;;;;;;;;5096214;28;20195;-88
2022/07/09 13:16:59;;;;;;;2.33;2.13;;;;;;;;;;5096531;28;20228;-88
2022/07/09 13:19:26;;;;;;;3.07;1.90;;;;;;;;;;5096530;28;20249;-87
2022/07/09 13:21:53;;;;;;;2.37;2.00;;;;;;;;;;5096095;28;20687;-87
2022/07/09 13:24:21;;;;;;;3.03;2.37;;;;;;;;;;5096219;28;20207;-88
2022/07/09 13:26:49;;;;;;;4.43;2.30;;;;;;;;;;5096280;28;20200;-87
2022/07/09 13:29:16;;;;;;;2.70;2.30;;;;;;;;;;5095642;28;20295;-88
2022/07/09 13:31:43;;;;;;;1.83;1.73;;;;;;;;;;5096146;28;20585;-87
2022/07/09 13:34:10;;;;;;;2.73;2.50;;;;;;;;;;5095760;28;20196;-88
2022/07/09 13:36:37;;;;;;;3.43;2.10;;;;;;;;;;5095700;28;20220;-87
2022/07/09 13:39:05;;;;;;;2.50;2.20;;;;;;;;;;5095960;28;20196;-87
2022/07/09 13:41:32;;;;;;;2.37;2.17;;;;;;;;;;5094939;28;20284;-88
2022/07/09 13:44:00;;;;;;;3.90;2.30;;;;;;;;;;5095675;28;20246;-87
2022/07/09 13:46:29;;;;;;;2.77;2.47;;;;;;;;;;5095458;28;20199;-87
2022/07/09 13:48:56;;;;;;;2.67;2.30;;;;;;;;;;5095719;28;20221;-86
2022/07/09 13:51:23;;;;;;;3.13;2.77;;;;;;;;;;5095771;28;20688;-87
2022/07/09 13:53:50;;;;;;;3.20;2.07;;;;;;;;;;5095443;28;20664;-88
2022/07/09 13:56:18;;;;;;;6.03;2.40;;;;;;;;;;5095547;28;20220;-87
2022/07/09 13:58:45;;;;;;;3.90;2.77;;;;;;;;;;5095861;28;20657;-86
2022/07/09 14:01:14;;;;;;;2.17;2.07;;;;;;;;;;5095138;28;20257;-87
2022/07/09 14:03:41;;;;;;;2.50;2.30;;;;;;;;;;5095580;28;20200;-87
2022/07/09 14:06:08;;;;;;;2.30;2.10;;;;;;;;;;5095159;28;20683;-87
2022/07/09 14:08:35;;;;;;;2.50;2.30;;;;;;;;;;5095236;28;20185;-88
2022/07/09 14:11:02;;;;;;;3.67;2.37;;;;;;;;;;5095099;28;20192;-88
2022/07/09 14:13:30;;;;;;;2.83;2.63;;;;;;;;;;5095858;28;20265;-88
2022/07/09 14:16:00;;;;;;;2.93;2.30;;;;;;;;;;5095085;28;20220;-88
2022/07/09 14:18:28;;;;;;;2.50;2.30;;;;;;;;;;5095280;28;20219;-90
2022/07/09 14:20:55;;;;;;;2.73;2.33;;;;;;;;;;5095325;28;20287;-89
2022/07/09 14:23:22;;;;;;;3.40;2.30;;;;;;;;;;5095295;28;20607;-88
2022/07/09 14:25:50;;;;;;;5.10;2.20;;;;;;;;;;5094696;28;20200;-88
2022/07/09 14:28:17;;;;;;;5.07;2.43;;;;;;;;;;5095033;28;20202;-87
2022/07/09 14:30:44;;;;;;;4.93;2.40;;;;;;;;;;5094822;28;20204;-88
2022/07/09 14:33:11;;;;;;;2.70;2.20;;;;;;;;;;5094945;28;20200;-90
2022/07/09 14:35:40;;;;;;;4.83;2.20;;;;;;;;;;5094749;28;20196;-89
2022/07/09 14:38:07;;;;;;;4.13;2.73;;;;;;;;;;5094411;28;20691;-88
2022/07/09 14:40:34;;;;;;;2.53;2.33;;;;;;;;;;5094799;28;20203;-89
2022/07/09 14:43:02;;;;;;;3.20;2.90;;;;;;;;;;5094813;28;20208;-88
2022/07/09 14:45:29;;;;;;;4.00;2.50;;;;;;;;;;5094547;28;20751;-88
2022/07/09 14:47:56;;;;;;;3.60;2.80;;;;;;;;;;5094275;28;20199;-88
2022/07/09 14:50:23;;;;;;;2.60;2.40;;;;;;;;;;5094282;28;20205;-89